createdAt,value
2022-08-28T14:40:07.767Z,16.48
2022-08-28T15:07:08.404Z,16.00
2022-08-28T15:09:38.670Z,15.65
2022-08-28T15:12:08.622Z,15.75
2022-08-28T15:14:36.265Z,15.88
2022-08-28T15:17:03.834Z,15.13
2022-08-28T15:19:31.229Z,15.50
2022-08-28T15:22:00.197Z,16.02
2022-08-28T15:24:31.689Z,16.60
2022-08-28T15:26:59.793Z,16.05
2022-08-28T18:10:18.363Z,53.38
2022-08-28T18:45:50.538Z,45.78
2022-08-28T18:48:19.302Z,41.47
2022-08-28T18:50:48.356Z,42.35
2022-08-28T18:53:23.803Z,41.50
2022-08-28T18:58:37.120Z,36.83
2022-08-28T19:01:04.909Z,37.35
2022-08-28T19:03:37.624Z,35.13
2022-08-28T19:06:09.138Z,33.65
2022-08-28T19:08:37.774Z,32.25
2022-08-28T19:11:10.206Z,34.03
2022-08-28T19:13:41.775Z,32.83
2022-08-28T19:16:21.130Z,33.00
2022-08-28T19:18:52.849Z,31.88
2022-08-28T19:21:28.355Z,32.80
2022-08-28T19:23:57.656Z,34.15
2022-08-28T19:26:28.960Z,34.10
2022-08-28T19:29:00.173Z,34.13
2022-08-28T19:31:39.680Z,35.00
2022-08-28T19:34:10.029Z,32.75
2022-08-28T19:36:37.721Z,34.33
2022-08-28T19:39:08.566Z,33.35
2022-08-28T19:41:40.765Z,32.33
2022-08-28T19:44:10.568Z,34.30
2022-08-28T19:46:39.270Z,32.25
2022-08-28T19:49:07.678Z,31.50
2022-08-28T19:51:36.626Z,31.75
2022-08-28T19:54:14.066Z,33.67
2022-08-28T19:59:28.336Z,43.08
2022-08-28T20:02:06.091Z,36.28
2022-08-28T20:04:34.125Z,31.15
2022-08-28T20:07:01.230Z,31.98
2022-08-28T20:09:29.244Z,34.50
2022-08-28T20:11:59.527Z,32.05
2022-08-28T20:14:38.128Z,32.65
2022-08-28T20:17:05.442Z,33.35
2022-08-28T20:19:33.503Z,31.67
2022-08-28T20:22:05.254Z,30.45
2022-08-28T20:27:02.242Z,30.17
2022-08-28T20:29:30.178Z,29.23
2022-08-28T20:31:57.166Z,29.50
2022-08-28T20:34:29.300Z,31.83
2022-08-28T20:36:56.838Z,30.30
2022-08-28T20:39:23.814Z,33.15
2022-08-28T20:41:51.113Z,29.38
2022-08-28T20:44:21.334Z,29.02
2022-08-28T20:46:51.487Z,30.48
2022-08-28T20:49:22.271Z,30.00
2022-08-28T20:51:53.407Z,44.08
2022-08-28T20:54:30.031Z,47.55
2022-08-28T20:56:59.134Z,36.22
2022-08-28T20:59:28.790Z,36.97
2022-08-28T21:02:02.724Z,30.05
2022-08-28T21:04:31.463Z,30.55
2022-08-28T21:06:58.553Z,30.17
2022-08-28T21:09:39.521Z,30.60
2022-08-28T21:12:16.039Z,28.38
2022-08-28T21:59:16.758Z,27.33
